createdAt,value
2018-10-11T00:10:30.117Z,11.37
2018-10-11T01:00:48.632Z,12.87
2018-10-11T01:20:37.313Z,12.93
2018-10-11T01:40:31.525Z,13.30
2018-10-11T02:00:25.338Z,14.50
2018-10-11T02:30:36.277Z,14.47
2018-10-11T02:50:35.592Z,13.60
2018-10-11T02:55:07.180Z,14.63
2018-10-11T02:57:09.816Z,15.35
2018-10-11T02:59:13.305Z,14.50
2018-10-11T03:01:15.867Z,13.80
2018-10-11T03:03:18.434Z,13.87
2018-10-11T03:05:20.991Z,12.97
2018-10-11T03:07:23.611Z,13.90
2018-10-11T03:09:26.504Z,14.37
2018-10-11T03:11:29.862Z,13.40
2018-10-11T03:13:32.450Z,13.90
2018-10-11T03:15:35.000Z,13.70
2018-10-11T03:17:37.589Z,12.97
2018-10-11T03:19:40.252Z,13.10
2018-10-11T03:21:42.832Z,13.03
2018-10-11T03:23:45.392Z,14.90
2018-10-11T03:25:47.998Z,14.77
2018-10-11T03:27:50.554Z,13.97
2018-10-11T03:29:53.106Z,12.10
2018-10-11T03:31:55.837Z,14.53
2018-10-11T03:33:58.373Z,13.43
2018-10-11T03:36:00.921Z,14.07
2018-10-11T03:38:03.493Z,13.90
2018-10-11T03:40:06.050Z,13.13
2018-10-11T03:42:08.673Z,15.03
2018-10-11T03:44:11.360Z,14.83
2018-10-11T03:46:13.921Z,14.93
2018-10-11T03:48:16.942Z,14.87
2018-10-11T03:50:20.297Z,14.83
2018-10-11T03:52:22.851Z,14.53
2018-10-11T03:54:25.483Z,14.53
2018-10-11T03:56:28.824Z,14.80
2018-10-11T03:58:31.382Z,15.23
2018-10-11T04:00:33.934Z,14.90
2018-10-11T04:02:36.514Z,13.67
2018-10-11T04:04:39.125Z,14.67
2018-10-11T04:06:41.703Z,15.10
2018-10-11T04:08:44.482Z,15.07
2018-10-11T04:10:47.034Z,15.33
2018-10-11T04:12:49.625Z,14.50
2018-10-11T04:14:52.414Z,13.20
2018-10-11T04:16:54.973Z,14.97
2018-10-11T04:18:57.522Z,14.53
2018-10-11T04:21:00.161Z,14.43
2018-10-11T04:23:02.701Z,14.03
2018-10-11T04:25:05.262Z,13.97
2018-10-11T04:27:07.845Z,14.73
2018-10-11T04:29:10.398Z,14.37
2018-10-11T04:31:12.959Z,14.40
2018-10-11T04:33:15.521Z,14.13
2018-10-11T04:35:18.536Z,15.13
2018-10-11T04:37:21.841Z,15.03
2018-10-11T04:39:24.405Z,13.67
2018-10-11T04:41:26.977Z,13.60
2018-10-11T04:43:29.566Z,14.33
2018-10-11T04:45:32.655Z,14.67
2018-10-11T04:47:35.326Z,14.70
2018-10-11T04:49:37.877Z,15.07
2018-10-11T04:51:40.456Z,12.87
2018-10-11T04:53:43.076Z,15.50
2018-10-11T04:55:45.607Z,14.60
2018-10-11T04:57:48.172Z,15.03
2018-10-11T04:59:50.788Z,15.50
2018-10-11T05:01:53.343Z,14.17
2018-10-11T05:03:55.941Z,15.53
2018-10-11T05:05:58.487Z,14.63
2018-10-11T05:08:01.116Z,14.10
2018-10-11T05:10:03.670Z,14.87
2018-10-11T05:12:07.730Z,14.73
2018-10-11T05:14:10.293Z,15.40
2018-10-11T05:16:12.842Z,15.57
2018-10-11T05:18:15.457Z,16.43
2018-10-11T05:20:18.053Z,14.53
2018-10-11T05:22:20.711Z,15.17
2018-10-11T05:24:23.277Z,16.80
2018-10-11T05:26:25.851Z,15.80
2018-10-11T05:28:28.437Z,16.27
2018-10-11T05:30:31.001Z,14.60
2018-10-11T05:32:33.554Z,16.30
2018-10-11T05:34:36.249Z,16.57
2018-10-11T05:36:38.825Z,14.30
2018-10-11T05:38:41.398Z,15.43
2018-10-11T05:40:43.953Z,15.17
2018-10-11T05:42:46.505Z,16.20
2018-10-11T05:44:49.158Z,15.90
2018-10-11T05:46:51.785Z,15.63
2018-10-11T05:48:54.353Z,14.90
2018-10-11T05:50:56.945Z,16.97
2018-10-11T05:52:59.501Z,14.93
2018-10-11T05:55:02.090Z,16.50
2018-10-11T05:57:04.637Z,15.60
2018-10-11T05:59:07.234Z,16.00
2018-10-11T06:01:09.854Z,15.80
2018-10-11T06:03:13.897Z,15.43
2018-10-11T06:05:16.469Z,15.67
2018-10-11T06:07:19.033Z,15.77
2018-10-11T06:09:21.637Z,15.70
2018-10-11T06:11:24.215Z,15.60
2018-10-11T06:13:26.770Z,15.07
2018-10-11T06:15:29.342Z,14.80
2018-10-11T06:17:31.894Z,16.27
2018-10-11T06:19:34.489Z,16.63
2018-10-11T06:21:37.797Z,15.00
2018-10-11T06:23:40.404Z,15.73
2018-10-11T06:25:42.958Z,15.93
2018-10-11T06:27:45.521Z,15.73
2018-10-11T06:29:48.081Z,14.63
2018-10-11T06:31:50.657Z,15.83
2018-10-11T06:33:53.213Z,16.20
2018-10-11T06:35:55.856Z,14.87
2018-10-11T06:37:59.909Z,14.70
2018-10-11T06:40:02.501Z,15.00
2018-10-11T06:42:05.110Z,15.50
2018-10-11T06:44:07.658Z,14.73
2018-10-11T06:46:10.174Z,14.10
2018-10-11T06:48:12.833Z,15.30
2018-10-11T06:50:15.454Z,14.83
2018-10-11T06:52:18.715Z,13.37
2018-10-11T06:54:21.336Z,15.27
2018-10-11T06:56:24.006Z,13.00
2018-10-11T06:58:26.549Z,14.50
2018-10-11T07:00:29.125Z,14.10
2018-10-11T07:02:31.710Z,14.70
2018-10-11T07:04:34.264Z,13.57
2018-10-11T07:06:36.874Z,15.13
2018-10-11T07:08:39.598Z,16.10
2018-10-11T07:10:42.917Z,15.60
2018-10-11T07:12:45.490Z,16.30
2018-10-11T07:14:48.046Z,15.90
2018-10-11T07:16:50.693Z,15.33
2018-10-11T07:18:53.241Z,18.43
2018-10-11T07:20:55.807Z,15.50
2018-10-11T07:22:58.377Z,15.87
2018-10-11T07:25:00.960Z,16.33
2018-10-11T07:27:03.536Z,17.47
2018-10-11T07:29:06.099Z,18.33
2018-10-11T07:31:08.655Z,17.13
2018-10-11T07:33:11.977Z,17.97
2018-10-11T07:35:14.579Z,17.87
2018-10-11T07:37:17.101Z,17.70
2018-10-11T07:39:19.826Z,17.53
2018-10-11T07:41:23.151Z,18.60
2018-10-11T07:43:26.216Z,18.33
2018-10-11T07:45:29.560Z,18.50
2018-10-11T07:47:32.134Z,19.60
2018-10-11T07:49:34.686Z,16.47
2018-10-11T07:51:37.237Z,20.07
2018-10-11T07:53:39.853Z,21.67
2018-10-11T07:55:42.410Z,18.27
2018-10-11T07:57:44.997Z,18.50
2018-10-11T07:59:47.560Z,20.60
2018-10-11T08:01:50.151Z,21.13
2018-10-11T08:03:52.717Z,19.83
2018-10-11T08:05:55.445Z,20.50
2018-10-11T08:07:58.024Z,20.37
2018-10-11T08:10:00.633Z,19.50
2018-10-11T08:12:03.375Z,21.43
2018-10-11T08:14:05.798Z,20.77
2018-10-11T08:16:08.611Z,19.53
2018-10-11T08:18:10.933Z,20.33
2018-10-11T08:20:13.602Z,20.50
2018-10-11T08:22:17.593Z,21.00
2018-10-11T08:24:20.181Z,22.17
2018-10-11T08:26:23.269Z,22.00
2018-10-11T08:28:25.428Z,20.90
2018-10-11T08:30:28.014Z,21.93
2018-10-11T08:32:30.672Z,21.47
2018-10-11T08:34:33.182Z,20.30
2018-10-11T08:36:35.737Z,21.50
2018-10-11T08:38:38.370Z,19.83
2018-10-11T08:40:40.982Z,20.97
2018-10-11T08:42:43.568Z,20.00
2018-10-11T08:44:46.238Z,20.10
2018-10-11T08:46:48.793Z,20.60
2018-10-11T08:48:51.358Z,21.13
2018-10-11T08:50:54.012Z,21.00
2018-10-11T08:52:56.501Z,20.20
2018-10-11T08:54:59.077Z,19.70
2018-10-11T08:57:01.628Z,20.33
2018-10-11T08:59:05.094Z,19.67
2018-10-11T09:01:07.613Z,20.63
2018-10-11T09:03:10.175Z,21.10
2018-10-11T09:05:12.784Z,18.70
2018-10-11T09:07:15.309Z,18.57
2018-10-11T09:09:17.931Z,21.57
2018-10-11T09:11:20.528Z,19.47
2018-10-11T09:13:23.045Z,21.30
2018-10-11T09:15:25.650Z,19.53
2018-10-11T09:17:29.104Z,20.27
2018-10-11T09:19:32.441Z,22.07
2018-10-11T09:21:35.006Z,22.10
2018-10-11T09:23:37.552Z,19.73
2018-10-11T09:25:40.130Z,21.23
2018-10-11T09:27:42.682Z,21.17
2018-10-11T09:29:46.672Z,21.67
2018-10-11T09:31:49.205Z,22.07
2018-10-11T09:33:52.129Z,21.77
2018-10-11T09:35:54.803Z,21.40
2018-10-11T09:37:57.329Z,20.77
2018-10-11T09:39:59.916Z,22.03
2018-10-11T09:42:03.081Z,20.17
2018-10-11T09:44:05.638Z,20.77
2018-10-11T09:46:08.284Z,22.40
2018-10-11T09:48:10.813Z,20.23
2018-10-11T09:50:13.394Z,19.80
2018-10-11T09:52:15.940Z,20.53
2018-10-11T09:54:19.033Z,20.80
2018-10-11T09:56:23.199Z,21.87
2018-10-11T09:58:25.837Z,19.17
2018-10-11T10:00:28.418Z,21.90
2018-10-11T10:02:30.965Z,18.93
2018-10-11T10:04:33.578Z,21.20
2018-10-11T10:06:36.145Z,19.20
2018-10-11T10:08:38.701Z,19.47
2018-10-11T10:10:41.300Z,20.20
2018-10-11T10:12:43.856Z,20.20
2018-10-11T10:14:46.463Z,19.57
2018-10-11T10:16:49.809Z,20.23
2018-10-11T10:18:52.368Z,20.83
2018-10-11T10:20:54.970Z,20.70
2018-10-11T10:22:57.558Z,20.10
2018-10-11T10:25:00.103Z,19.67
2018-10-11T10:27:02.841Z,21.17
2018-10-11T10:29:05.674Z,19.00
2018-10-11T10:31:08.253Z,18.93
2018-10-11T10:33:10.813Z,20.33
2018-10-11T10:35:13.736Z,19.43
2018-10-11T10:37:17.071Z,18.07
2018-10-11T10:39:20.225Z,17.40
2018-10-11T10:41:23.576Z,18.03
2018-10-11T10:43:26.141Z,20.10
2018-10-11T10:45:28.694Z,17.77
2018-10-11T10:47:31.289Z,18.80
2018-10-11T10:49:34.662Z,16.93
2018-10-11T10:51:37.261Z,19.00
2018-10-11T10:53:39.832Z,19.47
2018-10-11T10:55:42.402Z,17.17
2018-10-11T10:57:44.974Z,17.90
2018-10-11T10:59:47.867Z,17.80
2018-10-11T11:01:50.410Z,17.90
2018-10-11T11:03:52.981Z,16.87
2018-10-11T11:05:55.530Z,18.13
2018-10-11T11:07:58.870Z,18.80
2018-10-11T11:10:01.413Z,17.40
2018-10-11T11:12:04.066Z,18.70
2018-10-11T11:14:07.530Z,19.57
2018-10-11T11:16:10.082Z,18.20
2018-10-11T11:18:12.649Z,17.50
2018-10-11T11:20:15.202Z,17.30
2018-10-11T11:22:18.373Z,22.47
2018-10-11T11:24:20.942Z,20.27
2018-10-11T11:26:24.289Z,17.47
2018-10-11T11:28:26.969Z,17.70
2018-10-11T11:30:29.535Z,19.93
2018-10-11T11:32:32.089Z,19.07
2018-10-11T11:34:34.665Z,19.30
2018-10-11T11:36:37.249Z,17.20
2018-10-11T11:38:39.822Z,19.37
2018-10-11T11:40:42.370Z,19.90
2018-10-11T11:42:44.917Z,19.40
2018-10-11T11:44:47.645Z,17.80
2018-10-11T11:46:50.201Z,18.90
2018-10-11T11:48:52.764Z,19.23
2018-10-11T11:50:56.082Z,18.20
2018-10-11T11:52:58.664Z,19.40
2018-10-11T11:55:01.228Z,18.17
2018-10-11T11:57:03.788Z,17.57
2018-10-11T11:59:06.347Z,19.20
2018-10-11T12:01:08.910Z,18.17
2018-10-11T12:03:12.239Z,18.03
2018-10-11T12:05:14.884Z,17.63
2018-10-11T12:07:17.387Z,18.70
2018-10-11T12:09:20.070Z,18.53
2018-10-11T12:11:22.617Z,17.67
2018-10-11T12:13:25.177Z,18.10
2018-10-11T12:15:27.741Z,16.93
2018-10-11T12:17:31.068Z,17.43
2018-10-11T12:19:33.653Z,18.70
2018-10-11T12:21:36.214Z,17.60
2018-10-11T12:23:39.357Z,16.30
2018-10-11T12:25:42.690Z,16.43
2018-10-11T12:27:45.242Z,15.67
2018-10-11T12:29:47.835Z,15.97
2018-10-11T12:31:50.438Z,15.90
2018-10-11T12:33:53.093Z,16.73
2018-10-11T12:35:55.660Z,16.77
2018-10-11T12:37:58.205Z,15.43
2018-10-11T12:40:00.785Z,15.70
2018-10-11T12:42:03.345Z,16.57
2018-10-11T12:44:06.668Z,15.27
2018-10-11T12:46:09.241Z,15.67
2018-10-11T12:48:11.788Z,18.67
2018-10-11T12:50:14.365Z,16.73
2018-10-11T12:52:17.205Z,15.30
2018-10-11T12:54:19.937Z,14.93
2018-10-11T12:56:22.579Z,15.60
2018-10-11T12:58:25.101Z,15.20
2018-10-11T13:00:27.901Z,15.23
2018-10-11T13:02:30.471Z,14.07
2018-10-11T13:04:33.064Z,13.23
2018-10-11T13:06:35.725Z,15.23
2018-10-11T13:08:38.294Z,14.60
2018-10-11T13:10:40.846Z,13.93
2018-10-11T13:12:43.396Z,14.10
2018-10-11T13:14:45.946Z,14.23
2018-10-11T13:16:49.401Z,13.93
2018-10-11T13:18:51.954Z,14.50
2018-10-11T13:20:54.533Z,14.40
2018-10-11T13:22:58.198Z,15.50
2018-10-11T13:25:00.692Z,13.90
2018-10-11T13:27:03.270Z,13.83
2018-10-11T13:29:05.834Z,16.13
2018-10-11T13:31:08.425Z,14.07
2018-10-11T13:33:10.986Z,13.57
2018-10-11T13:35:13.660Z,13.47
2018-10-11T13:37:16.188Z,12.03
2018-10-11T13:39:18.725Z,12.40
2018-10-11T13:41:21.365Z,13.70
2018-10-11T13:43:23.858Z,11.43
2018-10-11T13:45:26.405Z,13.00
2018-10-11T13:47:29.801Z,13.07
2018-10-11T13:49:32.369Z,11.97
2018-10-11T13:51:35.697Z,12.70
2018-10-11T13:53:38.299Z,12.57
2018-10-11T13:55:43.959Z,12.83
2018-10-11T13:57:43.409Z,12.60
2018-10-11T13:59:45.964Z,12.63
2018-10-11T14:01:48.566Z,12.53
2018-10-11T14:03:51.141Z,11.90
2018-10-11T14:05:53.700Z,11.20
2018-10-11T14:07:56.253Z,11.23
2018-10-11T14:09:59.105Z,13.17
2018-10-11T14:12:01.648Z,11.20
2018-10-11T14:14:04.205Z,12.80
2018-10-11T14:16:06.889Z,11.50
2018-10-11T14:18:11.913Z,11.67
2018-10-11T14:20:12.005Z,13.03
2018-10-11T14:22:14.604Z,11.00
2018-10-11T14:24:17.228Z,11.00
2018-10-11T14:26:20.851Z,11.30
2018-10-11T14:28:23.456Z,10.53
2018-10-11T14:30:26.014Z,12.63
2018-10-11T14:32:28.565Z,12.27
2018-10-11T14:34:31.184Z,11.53
2018-10-11T14:36:33.746Z,12.07
2018-10-11T14:38:36.329Z,10.53
2018-10-11T14:40:39.034Z,10.87
2018-10-11T14:42:41.711Z,11.10
2018-10-11T14:44:44.373Z,10.20
2018-10-11T14:46:46.957Z,10.50
2018-10-11T14:48:50.273Z,9.90
2018-10-11T14:50:53.603Z,11.30
2018-10-11T14:52:56.910Z,11.03
2018-10-11T14:54:59.469Z,10.70
2018-10-11T14:57:02.313Z,11.57
2018-10-11T14:59:04.940Z,11.00
2018-10-11T15:01:07.493Z,10.13
2018-10-11T15:03:10.091Z,13.10
2018-10-11T15:05:12.751Z,10.43
2018-10-11T15:07:15.700Z,11.30
2018-10-11T15:09:18.250Z,9.47
2018-10-11T15:11:21.783Z,10.50
2018-10-11T15:13:24.273Z,10.40
2018-10-11T15:15:26.848Z,10.73
2018-10-11T15:17:29.521Z,10.60
2018-10-11T15:19:32.076Z,10.67
2018-10-11T15:21:34.677Z,10.20
2018-10-11T15:23:37.251Z,11.10
2018-10-11T15:25:39.823Z,10.07
2018-10-11T15:27:42.370Z,10.30
2018-10-11T15:29:45.000Z,13.13
2018-10-11T15:31:47.521Z,10.40
2018-10-11T15:33:50.097Z,12.17
2018-10-11T15:35:52.789Z,10.47
2018-10-11T15:37:55.347Z,10.70
2018-10-11T15:39:58.706Z,10.70
2018-10-11T15:42:01.330Z,12.20
2018-10-11T15:44:03.882Z,12.77
2018-10-11T15:46:06.477Z,12.77
2018-10-11T15:48:09.150Z,14.40
2018-10-11T15:50:11.771Z,12.77
2018-10-11T15:52:15.552Z,12.10
2018-10-11T15:54:18.202Z,11.70
2018-10-11T15:56:20.769Z,11.23
2018-10-11T15:58:23.349Z,11.80
2018-10-11T16:00:26.525Z,12.53
2018-10-11T16:02:29.090Z,12.47
2018-10-11T16:04:32.061Z,12.20
2018-10-11T16:06:34.634Z,12.17
2018-10-11T16:08:37.431Z,11.43
2018-10-11T16:10:40.721Z,12.40
2018-10-11T16:12:43.686Z,11.50
2018-10-11T16:14:46.447Z,11.80
2018-10-11T16:16:49.076Z,10.77
2018-10-11T16:18:51.830Z,10.53
2018-10-11T16:20:55.282Z,10.63
2018-10-11T16:22:58.617Z,10.30
2018-10-11T16:25:01.189Z,11.53
2018-10-11T16:27:03.773Z,11.17
2018-10-11T16:29:06.329Z,10.27
2018-10-11T16:31:09.025Z,10.17
2018-10-11T16:33:11.594Z,12.30
2018-10-11T16:35:14.144Z,9.47
2018-10-11T16:37:16.857Z,10.63
2018-10-11T16:39:20.217Z,10.97
2018-10-11T16:41:22.762Z,9.20
2018-10-11T16:43:26.089Z,9.27
2018-10-11T16:45:29.330Z,9.70
2018-10-11T16:47:33.365Z,10.10
2018-10-11T16:49:35.953Z,9.57
2018-10-11T16:51:38.544Z,10.33
2018-10-11T16:53:41.098Z,9.00
2018-10-11T16:55:43.731Z,11.50
2018-10-11T16:57:46.261Z,10.47
2018-10-11T16:59:48.845Z,10.97
2018-10-11T17:01:51.413Z,9.50
2018-10-11T17:03:53.964Z,10.10
2018-10-11T17:05:56.510Z,9.23
2018-10-11T17:07:59.933Z,9.00
2018-10-11T17:10:02.548Z,9.93
2018-10-11T17:12:04.993Z,9.80
2018-10-11T17:14:07.549Z,10.23
2018-10-11T17:16:10.981Z,9.93
2018-10-11T17:18:13.634Z,10.07
2018-10-11T17:20:16.238Z,10.30
2018-10-11T17:22:18.802Z,10.20
2018-10-11T17:24:21.365Z,10.37
2018-10-11T17:26:23.922Z,10.83
2018-10-11T17:28:27.393Z,11.27
2018-10-11T17:30:29.966Z,11.10
2018-10-11T17:32:33.501Z,10.73
2018-10-11T17:34:36.121Z,11.47
2018-10-11T17:36:39.443Z,9.97
2018-10-11T17:38:42.022Z,10.60
2018-10-11T17:40:44.610Z,11.50
2018-10-11T17:42:47.324Z,10.77
2018-10-11T17:44:49.853Z,11.40
2018-10-11T17:46:52.437Z,12.40
2018-10-11T17:48:55.000Z,9.97
2018-10-11T17:50:57.593Z,10.93
2018-10-11T17:53:00.168Z,11.80
2018-10-11T17:55:02.722Z,10.33
2018-10-11T17:57:05.853Z,9.90
2018-10-11T17:59:09.181Z,11.67
2018-10-11T18:01:11.737Z,10.67
2018-10-11T18:03:15.130Z,10.77
2018-10-11T18:05:17.782Z,10.43
2018-10-11T18:07:20.322Z,11.90
2018-10-11T18:09:22.894Z,11.73
2018-10-11T18:11:25.866Z,11.43
2018-10-11T18:13:28.540Z,11.17
2018-10-11T18:15:31.109Z,12.27
2018-10-11T18:17:33.674Z,10.50
2018-10-11T18:19:36.245Z,11.83
2018-10-11T18:21:39.204Z,10.83
2018-10-11T18:23:41.724Z,10.80
2018-10-11T18:25:44.541Z,11.17
2018-10-11T18:27:47.173Z,12.40
2018-10-11T18:29:49.774Z,10.47
2018-10-11T18:31:52.316Z,11.80
2018-10-11T18:33:54.901Z,12.00
2018-10-11T18:35:57.475Z,10.80
2018-10-11T18:38:00.027Z,11.90
2018-10-11T18:40:02.630Z,11.80
2018-10-11T18:42:05.834Z,11.80
2018-10-11T18:44:08.381Z,10.83
2018-10-11T18:46:10.992Z,11.20
2018-10-11T18:48:13.535Z,11.13
2018-10-11T18:50:16.105Z,11.63
2018-10-11T18:52:18.658Z,12.50
2018-10-11T18:54:21.225Z,12.03
2018-10-11T18:56:23.797Z,12.20
2018-10-11T18:58:26.813Z,11.70
2018-10-11T19:00:29.385Z,11.20
2018-10-11T19:02:31.945Z,12.60
2018-10-11T19:04:34.513Z,11.77
2018-10-11T19:06:37.114Z,13.10
2018-10-11T19:08:39.633Z,14.07
2018-10-11T19:10:42.202Z,12.40
2018-10-11T19:12:44.859Z,11.77
2018-10-11T19:14:47.496Z,12.73
2018-10-11T19:16:50.462Z,11.73
2018-10-11T19:18:53.060Z,12.27
2018-10-11T19:20:55.662Z,12.93
2018-10-11T19:22:58.173Z,11.80
2018-10-11T19:25:01.268Z,12.82
2018-10-11T19:27:03.863Z,12.53
2018-10-11T19:29:06.469Z,14.50
2018-10-11T19:31:09.017Z,12.70
2018-10-11T19:33:11.573Z,13.17
2018-10-11T19:35:14.146Z,12.63
2018-10-11T19:37:16.739Z,11.67
2018-10-11T19:39:19.319Z,12.80
2018-10-11T19:41:21.978Z,12.77
2018-10-11T19:43:25.177Z,12.20
2018-10-11T19:45:27.736Z,12.40
2018-10-11T19:47:30.321Z,11.77
2018-10-11T19:49:33.520Z,12.70
2018-10-11T19:51:36.112Z,12.40
2018-10-11T19:53:38.745Z,12.33
2018-10-11T19:55:41.322Z,13.07
2018-10-11T19:57:43.869Z,12.30
2018-10-11T19:59:47.077Z,13.17
2018-10-11T20:01:49.666Z,13.07
2018-10-11T20:03:52.292Z,12.33
2018-10-11T20:05:55.639Z,13.13
2018-10-11T20:07:58.332Z,12.57
2018-10-11T20:10:00.827Z,11.80
2018-10-11T20:12:04.473Z,13.00
2018-10-11T20:14:07.033Z,12.20
2018-10-11T20:16:09.637Z,12.67
2018-10-11T20:18:12.197Z,14.70
2018-10-11T20:20:14.749Z,16.00
2018-10-11T20:22:17.310Z,16.13
2018-10-11T20:24:19.881Z,15.40
2018-10-11T20:26:22.486Z,12.60
2018-10-11T20:28:25.328Z,14.10
2018-10-11T20:30:28.735Z,13.13
2018-10-11T20:32:31.294Z,15.30
2018-10-11T20:34:34.185Z,15.10
2018-10-11T20:36:37.102Z,14.97
2018-10-11T20:38:40.765Z,15.60
2018-10-11T20:40:43.674Z,14.10
2018-10-11T20:42:47.350Z,15.20
2018-10-11T20:44:50.258Z,13.80
2018-10-11T20:46:55.022Z,13.43
2018-10-11T20:48:58.068Z,13.30
2018-10-11T20:51:01.008Z,14.80
2018-10-11T20:53:04.607Z,13.90
2018-10-11T20:55:07.518Z,15.70
2018-10-11T20:57:10.452Z,12.93
2018-10-11T20:59:14.209Z,14.87
2018-10-11T21:01:17.226Z,14.00
2018-10-11T21:03:20.081Z,13.53
2018-10-11T21:05:24.494Z,13.80
2018-10-11T21:07:28.309Z,12.23
2018-10-11T21:09:31.204Z,13.10
2018-10-11T21:11:34.880Z,12.50
2018-10-11T21:13:37.852Z,13.53
2018-10-11T21:15:41.592Z,13.07
2018-10-11T21:17:45.222Z,13.63
2018-10-11T21:19:48.130Z,13.37
2018-10-11T21:21:52.521Z,13.87
2018-10-11T21:23:55.494Z,13.87
2018-10-11T21:25:58.518Z,12.57
2018-10-11T21:28:01.552Z,13.87
2018-10-11T21:30:05.889Z,13.47
2018-10-11T21:32:08.809Z,14.17
2018-10-11T21:34:12.514Z,15.07
2018-10-11T21:36:15.372Z,14.17
2018-10-11T21:38:18.274Z,13.80
2018-10-11T21:40:21.944Z,14.23
2018-10-11T21:42:24.997Z,12.93
2018-10-11T21:44:27.929Z,13.10
2018-10-11T21:46:31.585Z,12.90
2018-10-11T21:48:34.480Z,11.77
2018-10-11T21:50:37.489Z,12.73
2018-10-11T21:52:40.442Z,13.40
2018-10-11T21:54:44.904Z,13.10
2018-10-11T21:56:48.813Z,13.77
2018-10-11T21:58:51.773Z,12.37
2018-10-11T22:00:55.445Z,13.00
2018-10-11T22:02:58.347Z,13.43
2018-10-11T22:05:01.685Z,13.93
2018-10-11T22:07:04.594Z,13.40
2018-10-11T22:09:07.493Z,13.70
2018-10-11T22:11:10.529Z,12.67
2018-10-11T22:13:14.193Z,14.33
2018-10-11T22:15:17.861Z,13.27
2018-10-11T22:17:20.741Z,12.70
2018-10-11T22:19:23.655Z,13.70
2018-10-11T22:21:27.329Z,14.07
2018-10-11T22:23:30.229Z,13.10
2018-10-11T22:25:33.160Z,13.67
2018-10-11T22:27:36.109Z,13.03
2018-10-11T22:29:40.522Z,12.70
2018-10-11T22:31:44.911Z,13.07
2018-10-11T22:33:47.914Z,12.10
2018-10-11T22:35:52.408Z,13.20
2018-10-11T22:37:55.281Z,12.90
2018-10-11T22:39:58.710Z,12.60
2018-10-11T22:42:03.097Z,11.93
2018-10-11T22:44:06.020Z,13.70
2018-10-11T22:46:09.690Z,11.53
2018-10-11T22:48:12.576Z,11.17
2018-10-11T22:50:15.482Z,11.80
2018-10-11T22:52:19.133Z,12.53
2018-10-11T22:54:22.107Z,13.07
2018-10-11T22:56:25.274Z,12.03
2018-10-11T22:58:28.687Z,13.80
2018-10-11T23:00:31.649Z,12.90
2018-10-11T23:02:35.309Z,12.50
2018-10-11T23:04:38.250Z,11.53
2018-10-11T23:06:41.981Z,12.83
2018-10-11T23:08:44.873Z,11.60
2018-10-11T23:10:49.288Z,12.23
2018-10-11T23:12:53.719Z,12.93
2018-10-11T23:14:58.273Z,12.20
2018-10-11T23:17:01.149Z,12.17
2018-10-11T23:19:05.049Z,11.63
2018-10-11T23:21:08.692Z,12.20
2018-10-11T23:23:11.591Z,12.60
2018-10-11T23:25:15.284Z,11.73
2018-10-11T23:27:18.924Z,11.70
2018-10-11T23:29:22.818Z,12.10
2018-10-11T23:31:26.493Z,12.60
2018-10-11T23:33:29.392Z,12.93
2018-10-11T23:35:33.177Z,11.67
2018-10-11T23:37:36.054Z,12.50
2018-10-11T23:39:38.940Z,12.97
2018-10-11T23:41:42.608Z,12.27
2018-10-11T23:43:45.490Z,13.50
2018-10-11T23:45:49.354Z,12.33
2018-10-11T23:47:52.242Z,11.83
2018-10-11T23:49:55.218Z,11.50
2018-10-11T23:51:58.861Z,13.20
2018-10-11T23:54:01.744Z,13.50
2018-10-11T23:56:04.752Z,12.87
2018-10-11T23:58:07.637Z,11.53
